LCPH Airport Information

Runway Information
Runway 11 Length 8858 ft width 148 ft
Elevation 41 ft Threshold 0 ft Heading 110
Runway 29 Length 8858 ft Width 148 ft
Elevation 30 ft Threshold 0 ft Heading 290
Airport Frequencies
Type APP Name APP Frequency 120.8 MHZ
Type TWR Name TWR Frequency 119.9 MHZ
Airport Navaids
Type TACAN Name Pafos Frequency 113200 KHZ
Type VOR-DME Name Pafos Frequency 117900 KHZ
Type NDB Name Pafos Frequency 328 KHZ
Airport Weather Information & NOTAM
ADDS - METARS form results

(0335 UTC 25 March 2019)
Data provider http://aviationweather.gov/metar/data/
 
METAR text: LCPH 250330Z 01005KT CAVOK 07/00 Q1005
Conditions at: LCPH (PAPHOS/BAF INTL , CY) observed 0330 UTC 25 March 2019
Temperature: 7.0°C (45°F)
Dewpoint: 0.0°C (32°F) [RH = 61%]
Pressure (altimeter): 29.68 inches Hg (1005.0 mb)
Winds: from the N (10 degrees) at 6 MPH (5 knots; 2.6 m/s)
Visibility: 6 or more miles (10+ km)
Ceiling: ceiling and visibility are OK
Clouds: unknown
Weather: no significant weather observed at this time

METAR text: LCPH 250300Z 05006KT CAVOK 08/01 Q1005
Conditions at: LCPH (PAPHOS/BAF INTL , CY) observed 0300 UTC 25 March 2019
Temperature: 8.0°C (46°F)
Dewpoint: 1.0°C (34°F) [RH = 61%]
Pressure (altimeter): 29.68 inches Hg (1005.0 mb)
Winds: from the NE (50 degrees) at 7 MPH (6 knots; 3.1 m/s)
Visibility: 6 or more miles (10+ km)
Ceiling: ceiling and visibility are OK
Clouds: unknown
Weather: no significant weather observed at this time

Forecast for: LCPH (PAPHOS/BAF INTL , CY)
Text: TAF LCPH 242330Z 2500/2524 03008KT 9999 FEW030
Forecast period: 0000 to 0600 UTC 25 March 2019
Forecast type: FROM: standard forecast or significant change
Winds: from the NNE (30 degrees) at 9 MPH (8 knots; 4.1 m/s)
Visibility: 6 or more miles 10+ km)
Ceiling: at least 12,000 feet AGL
Clouds: few clouds at 3000 feet AGL
Weather: no significant weather forecast for this period
Text: BECMG 2506/2509 29014KT
Forecast period: 0600 UTC 25 March 2019 to 0000 UTC 26 March 2019
Forecast type: BECOMING: Conditions expected to become as follows by 0900 UTC 25 March 2019
Winds: from the WNW (290 degrees) at 16 MPH (14 knots; 7.2 m/s)
Visibility: 6 or more miles 10+ km)
Ceiling: at least 12,000 feet AGL
Clouds: few clouds at 3000 feet AGL
Weather: no significant weather forecast for this period